LNG Dream — C6VO5 — position and weather

sailwx.info

Track history (hours):
 
Tides and Currents Weather Stations Pressure Air Temp Water Temp Dewpoint Dewpoint Depression Visibility Wind Speed Wind Dir Waves Ship Positions

LNG Dream

Last reported at 2016-Jun-29 02:13 UTC. Time now 2016-Jun-29 03:58 UTC.
Position S 20°10' E 117°02'.

Length 289.6 m; beam 49 m.

Type: Ship (hazmat cat A). MMSI: 309065000.

Date/timePositionNaut miles runAvg speedWind from/ knotsBaromVisibWave heightAir tempDewpointWater temp
2016-Jun-29 02:13S 20°10' E 117°02'1 1.7
2016-Jun-29 01:32S 20°09' E 117°02'1010.4
2016-Jun-29 00:32S 19°60' E 116°57'9 8.9
2016-Jun-28 23:33S 19°51' E 116°53'  
2016-Jun-21 05:33N 01°15' E 104°06'1211.6
2016-Jun-21 04:33N 01°13' E 103°55'1110.9
2016-Jun-21 03:33N 01°07' E 103°45'9 4.1
2016-Jun-21 01:30N 01°11' E 103°38'3 3.0
2016-Jun-21 00:26N 01°11' E 103°41'0 0.1
2016-Jun-20 23:14N 01°12' E 103°41'0 0.0
2016-Jun-20 21:20N 01°12' E 103°41'0 0.1
2016-Jun-20 20:13N 01°12' E 103°41'0 0.0
2016-Jun-20 19:31N 01°12' E 103°41'0 0.0
2016-Jun-20 18:19N 01°12' E 103°41'0 0.0
2016-Jun-20 17:31N 01°12' E 103°41'0 0.0
2016-Jun-20 16:31N 01°11' E 103°41'0 0.1
2016-Jun-20 13:22N 01°11' E 103°41'0 0.2
2016-Jun-20 12:28N 01°11' E 103°41'0 0.1
2016-Jun-20 11:28N 01°12' E 103°41'0 0.0
2016-Jun-20 10:28N 01°11' E 103°41'0 0.1
2016-Jun-20 09:25N 01°11' E 103°41'0 0.1
2016-Jun-20 08:25N 01°11' E 103°41'0 0.1
2016-Jun-20 06:19N 01°11' E 103°41'0 0.0
2016-Jun-20 05:28N 01°11' E 103°41'0 0.0
2016-Jun-20 04:31N 01°11' E 103°41'0 0.0
2016-Jun-19 23:31N 01°12' E 103°41'0 0.0
2016-Jun-19 22:19N 01°12' E 103°41'0 0.0
2016-Jun-19 21:31N 01°12' E 103°41'0 0.0
2016-Jun-19 20:31N 01°12' E 103°41'0 0.0
2016-Jun-19 19:19N 01°12' E 103°41'0 0.0
2016-Jun-19 17:31N 01°12' E 103°41'0 0.0
2016-Jun-19 15:31N 01°11' E 103°41'1 0.6
2016-Jun-19 14:33N 01°11' E 103°40'4 0.4
2016-Jun-19 04:22N 01°12' E 103°36'4 4.7
2016-Jun-19 03:32N 01°13' E 103°40'2 2.2
2016-Jun-19 02:32N 01°15' E 103°39'  
Track history (hours):
 
Tides and Currents Weather Stations Pressure Air Temp Water Temp Dewpoint Dewpoint Depression Visibility Wind Speed Wind Dir Waves Ship Positions

LNG Dream

Last reported at 2016-Jun-29 02:13 UTC. Time now 2016-Jun-29 03:58 UTC.
Position S 20°10' E 117°02'.

Length 289.6 m; beam 49 m.

Type: Ship (hazmat cat A). MMSI: 309065000.

Date/timePositionNaut miles runAvg speedWind from/ knotsBaromVisibWave heightAir tempDewpointWater temp
2016-Jun-29 02:13S 20°10' E 117°02'1 1.7
2016-Jun-29 01:32S 20°09' E 117°02'1010.4
2016-Jun-29 00:32S 19°60' E 116°57'9 8.9
2016-Jun-28 23:33S 19°51' E 116°53'  
2016-Jun-21 05:33N 01°15' E 104°06'1211.6
2016-Jun-21 04:33N 01°13' E 103°55'1110.9
2016-Jun-21 03:33N 01°07' E 103°45'9 4.1
2016-Jun-21 01:30N 01°11' E 103°38'3 3.0
2016-Jun-21 00:26N 01°11' E 103°41'0 0.1
2016-Jun-20 23:14N 01°12' E 103°41'0 0.0
2016-Jun-20 21:20N 01°12' E 103°41'0 0.1
2016-Jun-20 20:13N 01°12' E 103°41'0 0.0
2016-Jun-20 19:31N 01°12' E 103°41'0 0.0
2016-Jun-20 18:19N 01°12' E 103°41'0 0.0
2016-Jun-20 17:31N 01°12' E 103°41'0 0.0
2016-Jun-20 16:31N 01°11' E 103°41'0 0.1
2016-Jun-20 13:22N 01°11' E 103°41'0 0.2
2016-Jun-20 12:28N 01°11' E 103°41'0 0.1
2016-Jun-20 11:28N 01°12' E 103°41'0 0.0
2016-Jun-20 10:28N 01°11' E 103°41'0 0.1
2016-Jun-20 09:25N 01°11' E 103°41'0 0.1
2016-Jun-20 08:25N 01°11' E 103°41'0 0.1
2016-Jun-20 06:19N 01°11' E 103°41'0 0.0
2016-Jun-20 05:28N 01°11' E 103°41'0 0.0
2016-Jun-20 04:31N 01°11' E 103°41'0 0.0
2016-Jun-19 23:31N 01°12' E 103°41'0 0.0
2016-Jun-19 22:19N 01°12' E 103°41'0 0.0
2016-Jun-19 21:31N 01°12' E 103°41'0 0.0
2016-Jun-19 20:31N 01°12' E 103°41'0 0.0
2016-Jun-19 19:19N 01°12' E 103°41'0 0.0
2016-Jun-19 17:31N 01°12' E 103°41'0 0.0
2016-Jun-19 15:31N 01°11' E 103°41'1 0.6
2016-Jun-19 14:33N 01°11' E 103°40'4 0.4
2016-Jun-19 04:22N 01°12' E 103°36'4 4.7
2016-Jun-19 03:32N 01°13' E 103°40'2 2.2
2016-Jun-19 02:32N 01°15' E 103°39'  

Dump ship's entire track history